Time;durP1;ratioP1;P1;durP2;ratioP2;P2;SDS_P1;SDS_P2;PMS_P1;PMS_P2;Temp;Humidity;BMP_temperature;BMP_pressure;BME280_temperature;BME280_humidity;BME280_pressure;Samples;Min_cycle;Max_cycle;Signal;HPM_P1;HPM_P2
2022/05/13 00:01:44;;;;;;;4.47;4.07;;;21.10;99.90;;;;;;5112932;28;20200;-87
2022/05/13 00:04:14;;;;;;;4.25;3.85;;;21.00;99.90;;;;;;5113057;28;20224;-87
2022/05/13 00:06:43;;;;;;;7.07;4.88;;;21.00;99.90;;;;;;5113411;28;20204;-87
2022/05/13 00:09:11;;;;;;;7.85;4.10;;;20.90;99.90;;;;;;5112718;28;20230;-87
2022/05/13 00:11:40;;;;;;;4.65;4.25;;;20.90;99.90;;;;;;5112901;28;20203;-87
2022/05/13 00:14:09;;;;;;;4.63;4.22;;;20.90;99.90;;;;;;5112780;28;20299;-87
2022/05/13 00:16:39;;;;;;;5.57;4.95;;;20.70;99.90;;;;;;5112961;28;20207;-87
2022/05/13 00:19:11;;;;;;;4.60;4.03;;;20.70;99.90;;;;;;5112803;28;20215;-88
2022/05/13 00:21:41;;;;;;;4.80;4.40;;;20.70;99.90;;;;;;5113039;28;20207;-87
2022/05/13 00:24:11;;;;;;;10.10;4.88;;;20.70;99.90;;;;;;5112710;28;20228;-87
2022/05/13 00:26:40;;;;;;;13.27;4.25;;;20.70;99.90;;;;;;5113091;28;20208;-87
2022/05/13 00:29:08;;;;;;;4.68;4.28;;;20.70;99.90;;;;;;5113130;28;20254;-88
2022/05/13 00:31:36;;;;;;;4.65;4.25;;;20.60;99.90;;;;;;5112910;28;20200;-87
2022/05/13 00:34:05;;;;;;;10.25;4.07;;;20.50;99.90;;;;;;5113089;28;20319;-87
2022/05/13 00:36:33;;;;;;;4.88;4.20;;;20.60;99.90;;;;;;5117074;28;20203;-86
2022/05/13 00:39:04;;;;;;;4.18;3.30;;;20.70;99.90;;;;;;5116945;28;20234;-86
2022/05/13 00:41:33;;;;;;;3.30;3.00;;;20.80;99.90;;;;;;5117121;28;20204;-87
2022/05/13 00:44:02;;;;;;;3.00;2.70;;;20.80;99.90;;;;;;5117268;28;20223;-86
2022/05/13 00:46:32;;;;;;;3.03;2.65;;;20.80;99.90;;;;;;5117551;28;20242;-87
2022/05/13 00:49:04;;;;;;;3.83;2.88;;;20.70;99.90;;;;;;5116682;28;20223;-86
2022/05/13 00:51:36;;;;;;;6.18;2.70;;;20.60;99.90;;;;;;5116722;28;20203;-87
2022/05/13 00:54:08;;;;;;;2.45;2.25;;;20.60;99.90;;;;;;5116239;28;20311;-87
2022/05/13 00:56:37;;;;;;;5.78;2.88;;;20.50;99.90;;;;;;5116587;28;20219;-87
2022/05/13 00:59:09;;;;;;;4.53;3.00;;;20.30;99.90;;;;;;5116339;28;20315;-87
2022/05/13 01:01:37;;;;;;;2.33;2.22;;;19.90;99.90;;;;;;5116698;28;20227;-87
2022/05/13 01:04:10;;;;;;;3.22;2.85;;;19.70;99.90;;;;;;5116487;28;20293;-87
2022/05/13 01:06:41;;;;;;;3.10;2.80;;;19.40;99.90;;;;;;5116667;28;20267;-87
2022/05/13 01:09:11;;;;;;;3.90;2.92;;;19.20;99.90;;;;;;5116365;28;20200;-88
2022/05/13 01:11:44;;;;;;;3.30;3.00;;;19.10;99.90;;;;;;5116521;28;20208;-87
2022/05/13 01:14:25;;;;;;;3.30;3.05;;;18.90;99.90;;;;;;5116294;28;20262;-89
2022/05/13 01:19:44;;;;;;;3.33;2.42;;;18.20;99.90;;;;;;5116186;28;20233;-90
2022/05/13 01:22:23;;;;;;;8.00;2.88;;;17.70;99.90;;;;;;5116227;28;20242;-91
2022/05/13 01:25:07;;;;;;;4.07;3.33;;;17.30;99.90;;;;;;5109051;28;20200;-92
2022/05/13 01:27:40;;;;;;;4.30;3.25;;;17.00;99.90;;;;;;5116120;28;20208;-91
2022/05/13 01:33:26;;;;;;;6.70;3.45;;;16.70;99.90;;;;;;5110949;28;20289;-94
2022/05/13 01:35:59;;;;;;;4.13;3.33;;;16.60;99.90;;;;;;5115730;28;20232;-94
2022/05/13 01:38:32;;;;;;;4.25;3.92;;;16.40;99.90;;;;;;5116101;28;20219;-93
2022/05/13 01:41:17;;;;;;;4.32;3.80;;;16.30;99.90;;;;;;5115959;28;20207;-94
2022/05/13 01:43:50;;;;;;;3.72;3.38;;;16.30;99.90;;;;;;5115864;28;20223;-93
2022/05/13 01:46:20;;;;;;;3.83;3.53;;;16.30;99.90;;;;;;5114990;28;20203;-93
2022/05/13 01:48:51;;;;;;;4.63;4.15;;;16.30;99.90;;;;;;5115922;28;20221;-93
2022/05/13 01:51:20;;;;;;;4.45;4.05;;;16.20;99.90;;;;;;5115641;28;20200;-93
2022/05/13 01:53:53;;;;;;;6.10;4.85;;;16.10;99.90;;;;;;5115638;28;20220;-93
2022/05/13 01:56:23;;;;;;;5.90;4.20;;;16.10;99.90;;;;;;5116283;28;20264;-93
2022/05/13 01:58:55;;;;;;;4.00;3.70;;;16.20;99.90;;;;;;5115134;28;20299;-93
2022/05/13 02:01:26;;;;;;;6.00;4.93;;;16.10;99.90;;;;;;5115522;28;20231;-93
2022/05/13 02:03:57;;;;;;;4.53;4.13;;;16.00;99.90;;;;;;5115378;28;20227;-93
2022/05/13 02:06:28;;;;;;;4.18;3.78;;;16.00;99.90;;;;;;5115626;28;20227;-93
2022/05/13 02:09:00;;;;;;;6.40;3.95;;;16.00;99.90;;;;;;5115411;28;20227;-92
2022/05/13 02:11:32;;;;;;;5.35;4.63;;;16.00;99.90;;;;;;5115476;28;20254;-92
2022/05/13 02:14:01;;;;;;;6.35;4.10;;;16.00;99.90;;;;;;5115311;28;20319;-92
2022/05/13 02:16:32;;;;;;;7.03;5.28;;;16.00;99.90;;;;;;5115135;28;20211;-92
2022/05/13 02:19:04;;;;;;;5.00;4.40;;;16.10;99.90;;;;;;5114904;28;20220;-91
2022/05/13 02:21:39;;;;;;;5.20;4.70;;;16.10;99.90;;;;;;5115289;28;20204;-91
2022/05/13 02:24:22;;;;;;;5.25;4.35;;;16.10;99.90;;;;;;5115258;28;20200;-91
2022/05/13 02:26:53;;;;;;;4.95;4.45;;;16.10;99.90;;;;;;5115307;28;20264;-91
2022/05/13 02:29:25;;;;;;;5.50;4.93;;;16.10;99.90;;;;;;5115394;28;20227;-90
2022/05/13 02:31:55;;;;;;;4.32;4.03;;;16.10;99.90;;;;;;5115231;28;20228;-91
2022/05/13 02:34:28;;;;;;;3.97;3.67;;;16.10;99.90;;;;;;5116036;28;20250;-90
2022/05/13 02:36:59;;;;;;;4.35;3.95;;;16.10;99.90;;;;;;5115132;28;20207;-89
2022/05/13 02:39:29;;;;;;;4.40;4.10;;;16.10;99.90;;;;;;5114691;28;20239;-89
2022/05/13 02:42:03;;;;;;;6.80;4.47;;;16.10;99.90;;;;;;5114662;28;20291;-90
2022/05/13 02:44:32;;;;;;;4.65;4.25;;;16.20;99.90;;;;;;5114768;28;20290;-89
2022/05/13 02:47:02;;;;;;;4.38;3.97;;;16.10;99.90;;;;;;5114932;28;20199;-89
2022/05/13 02:49:36;;;;;;;3.50;3.20;;;16.10;99.90;;;;;;5114690;28;20256;-90
2022/05/13 02:52:05;;;;;;;6.32;3.65;;;16.10;99.90;;;;;;5114379;28;20260;-91
2022/05/13 02:54:39;;;;;;;5.60;3.63;;;16.00;99.90;;;;;;5114246;28;20203;-91
2022/05/13 02:57:07;;;;;;;3.75;3.45;;;15.90;99.90;;;;;;5114076;28;20299;-91
2022/05/13 02:59:42;;;;;;;3.70;3.40;;;15.90;99.90;;;;;;5114132;28;20243;-91
2022/05/13 03:02:12;;;;;;;4.70;3.30;;;15.90;99.90;;;;;;5114216;28;20219;-91
2022/05/13 03:04:41;;;;;;;3.65;3.35;;;15.80;99.90;;;;;;5114098;28;20211;-91
2022/05/13 03:07:14;;;;;;;3.17;2.92;;;15.80;99.90;;;;;;5114117;28;20231;-91
2022/05/13 03:09:45;;;;;;;4.45;3.95;;;15.90;99.90;;;;;;5114235;28;20204;-91
2022/05/13 03:12:19;;;;;;;4.93;4.32;;;15.90;99.90;;;;;;5114287;28;20224;-91
2022/05/13 03:14:48;;;;;;;4.07;3.75;;;15.90;99.90;;;;;;5114219;28;20280;-91
2022/05/13 03:17:19;;;;;;;7.30;3.80;;;16.00;99.90;;;;;;5113877;28;20227;-91
2022/05/13 03:19:50;;;;;;;3.80;3.50;;;16.00;99.90;;;;;;5113302;28;20242;-91
2022/05/13 03:22:21;;;;;;;8.00;4.47;;;16.00;99.90;;;;;;5113817;28;20236;-90
2022/05/13 03:25:10;;;;;;;5.43;4.22;;;16.10;99.90;;;;;;5113783;28;20199;-90
2022/05/13 03:27:38;;;;;;;3.85;3.50;;;16.10;99.90;;;;;;5113904;28;20210;-91
2022/05/13 03:30:13;;;;;;;4.60;3.47;;;16.10;99.90;;;;;;5113378;28;20199;-90
2022/05/13 03:32:42;;;;;;;3.15;2.95;;;16.10;99.90;;;;;;5113541;28;20234;-90
2022/05/13 03:35:15;;;;;;;4.00;3.60;;;16.10;99.90;;;;;;5113669;28;20203;-91
2022/05/13 03:37:45;;;;;;;3.95;3.53;;;16.10;99.90;;;;;;5113735;28;20234;-90
2022/05/13 03:40:18;;;;;;;3.85;3.15;;;16.10;99.90;;;;;;5113425;28;20286;-90
2022/05/13 03:42:47;;;;;;;3.42;3.10;;;16.10;99.90;;;;;;5113293;28;20311;-90
2022/05/13 03:45:19;;;;;;;3.35;3.05;;;16.10;99.90;;;;;;5113678;28;20207;-90
2022/05/13 03:47:49;;;;;;;3.25;2.95;;;16.00;99.90;;;;;;5113535;28;20227;-90
2022/05/13 03:50:20;;;;;;;3.72;2.80;;;16.00;99.90;;;;;;5113480;28;20196;-90
2022/05/13 03:52:54;;;;;;;5.78;3.25;;;16.10;99.90;;;;;;5113433;28;20247;-90
2022/05/13 03:55:24;;;;;;;3.10;2.88;;;16.10;99.90;;;;;;5113250;28;20226;-90
2022/05/13 03:57:58;;;;;;;3.92;3.63;;;16.10;99.90;;;;;;5113485;28;20211;-90
2022/05/13 04:00:27;;;;;;;3.55;3.25;;;16.10;99.90;;;;;;5112806;28;20273;-90
2022/05/13 04:02:55;;;;;;;4.18;3.30;;;16.20;99.90;;;;;;5113121;28;20249;-90
2022/05/13 04:11:05;;;;;;;3.03;2.83;;;16.30;99.90;;;;;;5112643;28;20248;-90
2022/05/13 04:16:19;;;;;;;2.97;2.72;;;16.30;99.90;;;;;;5113256;28;20260;-89
2022/05/13 04:18:51;;;;;;;2.63;2.42;;;16.30;99.90;;;;;;5113140;28;20227;-90
2022/05/13 04:21:24;;;;;;;2.42;2.33;;;16.30;99.90;;;;;;5112971;28;20287;-90
2022/05/13 04:23:54;;;;;;;3.55;2.97;;;16.30;99.90;;;;;;5113309;28;20223;-91
2022/05/13 04:26:27;;;;;;;2.85;2.38;;;16.30;99.90;;;;;;5113090;28;20216;-91
2022/05/13 04:28:57;;;;;;;2.30;2.15;;;16.30;99.90;;;;;;5112929;28;20248;-92
2022/05/13 04:31:31;;;;;;;2.65;2.45;;;16.20;99.90;;;;;;5112862;28;20265;-91
2022/05/13 04:34:16;;;;;;;2.70;2.50;;;16.20;99.90;;;;;;5113256;28;20593;-91
2022/05/13 04:36:48;;;;;;;3.28;2.97;;;16.20;99.90;;;;;;5112893;28;20203;-91
2022/05/13 04:39:19;;;;;;;3.42;3.10;;;16.10;99.90;;;;;;5113080;28;20239;-93
2022/05/13 04:44:39;;;;;;;3.53;3.22;;;16.10;99.90;;;;;;5112488;28;20231;-91
2022/05/13 04:50:10;;;;;;;3.85;3.17;;;16.20;99.90;;;;;;5112740;28;20199;-92
2022/05/13 04:52:39;;;;;;;2.95;2.70;;;16.10;99.90;;;;;;5112471;28;20276;-92
2022/05/13 04:55:11;;;;;;;5.90;3.20;;;16.10;99.90;;;;;;5112737;28;20230;-92
2022/05/13 04:57:41;;;;;;;5.47;3.22;;;16.10;99.90;;;;;;5112851;28;20208;-93
2022/05/13 05:00:14;;;;;;;7.30;3.35;;;16.10;99.90;;;;;;5112532;28;20262;-93
2022/05/13 05:02:43;;;;;;;3.63;3.00;;;16.10;99.90;;;;;;5112699;28;20228;-93
2022/05/13 05:05:15;;;;;;;3.58;3.28;;;16.10;99.90;;;;;;5112555;28;20203;-93
2022/05/13 05:07:46;;;;;;;3.58;3.28;;;16.10;99.90;;;;;;5112632;28;20208;-93
2022/05/13 05:10:21;;;;;;;3.88;3.20;;;16.10;99.90;;;;;;5112331;28;20207;-93
2022/05/13 05:13:08;;;;;;;3.30;2.97;;;16.10;99.90;;;;;;5112679;28;20288;-93
2022/05/13 05:15:39;;;;;;;4.32;4.03;;;16.10;99.90;;;;;;5112697;28;20207;-93
2022/05/13 05:18:10;;;;;;;3.33;3.13;;;16.20;99.90;;;;;;5112743;28;20291;-93
2022/05/13 05:20:53;;;;;;;2.97;2.75;;;16.20;99.90;;;;;;5112965;28;20220;-93
2022/05/13 05:23:39;;;;;;;3.70;3.40;;;16.10;99.90;;;;;;5115991;28;20219;-93
2022/05/13 05:26:13;;;;;;;3.97;3.53;;;16.20;99.90;;;;;;5116737;28;20291;-93
2022/05/13 05:28:56;;;;;;;3.90;3.40;;;16.20;99.90;;;;;;5116338;28;20210;-92
2022/05/13 05:31:33;;;;;;;3.58;3.28;;;16.30;99.90;;;;;;5115828;28;20216;-93
2022/05/13 05:34:02;;;;;;;4.90;3.35;;;16.30;99.90;;;;;;5115941;28;20219;-92
2022/05/13 05:36:30;;;;;;;3.65;3.35;;;16.30;99.90;;;;;;5115885;28;20247;-93
2022/05/13 05:38:59;;;;;;;3.50;3.20;;;16.30;99.90;;;;;;5116208;28;20219;-92
2022/05/13 05:41:27;;;;;;;6.05;4.18;;;16.30;99.90;;;;;;5115665;28;20288;-92
2022/05/13 05:43:57;;;;;;;3.33;3.13;;;16.30;99.90;;;;;;5116103;28;20223;-92
2022/05/13 05:46:25;;;;;;;3.20;3.00;;;16.40;99.90;;;;;;5115747;28;20270;-92
2022/05/13 05:48:54;;;;;;;3.70;3.38;;;16.40;99.90;;;;;;5115717;28;20204;-92
2022/05/13 05:51:25;;;;;;;4.57;3.85;;;16.40;99.90;;;;;;5115772;28;20204;-91
2022/05/13 05:59:27;;;;;;;5.85;4.03;;;16.60;99.90;;;;;;5115544;28;20195;-92
2022/05/13 06:01:55;;;;;;;3.67;3.38;;;16.60;99.90;;;;;;5114967;28;20247;-91
2022/05/13 06:04:23;;;;;;;5.65;3.70;;;16.70;99.90;;;;;;5115698;28;20203;-91
2022/05/13 06:06:52;;;;;;;3.92;3.45;;;16.70;99.90;;;;;;5115761;28;20283;-90
2022/05/13 06:09:20;;;;;;;4.35;3.95;;;16.80;99.90;;;;;;5115304;28;20230;-91
2022/05/13 06:11:49;;;;;;;4.07;3.42;;;16.80;99.90;;;;;;5115417;28;20198;-91
2022/05/13 06:14:18;;;;;;;3.17;2.97;;;16.80;99.90;;;;;;5115417;28;20223;-91
2022/05/13 06:16:48;;;;;;;4.88;3.25;;;16.80;99.90;;;;;;5115259;28;20291;-91
2022/05/13 06:19:17;;;;;;;3.97;3.13;;;16.90;99.90;;;;;;5114919;28;20253;-90
2022/05/13 06:21:45;;;;;;;4.07;3.72;;;17.00;99.90;;;;;;5114767;28;20318;-91
2022/05/13 06:24:14;;;;;;;3.85;3.55;;;17.00;99.90;;;;;;5115274;28;20280;-91
2022/05/13 06:26:42;;;;;;;4.00;3.65;;;17.10;99.90;;;;;;5114933;28;20208;-90
2022/05/13 06:29:11;;;;;;;3.70;3.40;;;17.10;99.90;;;;;;5114895;28;20219;-91
2022/05/13 06:31:42;;;;;;;3.97;3.63;;;17.20;99.90;;;;;;5114690;28;20230;-90
2022/05/13 06:34:12;;;;;;;4.28;3.67;;;17.20;99.90;;;;;;5115001;28;20250;-90
2022/05/13 06:36:41;;;;;;;3.60;3.30;;;17.30;99.90;;;;;;5115373;28;20216;-90
2022/05/13 06:39:10;;;;;;;3.88;3.30;;;17.20;99.90;;;;;;5114912;28;20204;-90
2022/05/13 06:41:40;;;;;;;3.88;3.22;;;17.30;99.90;;;;;;5114501;28;20272;-90
2022/05/13 06:44:11;;;;;;;3.58;3.28;;;17.30;99.90;;;;;;5114478;28;20224;-90
2022/05/13 06:46:40;;;;;;;5.97;3.70;;;17.30;99.90;;;;;;5114739;28;20286;-90
2022/05/13 06:49:11;;;;;;;2.95;2.75;;;17.30;99.90;;;;;;5114715;28;20200;-90
2022/05/13 06:51:41;;;;;;;3.40;3.20;;;17.40;99.90;;;;;;5114413;28;20282;-89
2022/05/13 06:54:13;;;;;;;3.35;3.13;;;17.40;99.90;;;;;;5113944;28;20243;-89
2022/05/13 06:57:14;;;;;;;3.22;3.03;;;17.40;99.90;;;;;;5114116;28;20235;-92
2022/05/13 06:59:43;;;;;;;16.85;3.45;;;17.40;99.90;;;;;;5112087;28;20199;-76
2022/05/13 07:02:19;;;;;;;3.50;3.22;;;17.50;99.90;;;;;;5101538;28;20300;-88
2022/05/13 07:04:47;;;;;;;4.82;3.45;;;17.50;99.90;;;;;;5101865;28;20196;-88
2022/05/13 07:07:18;;;;;;;3.72;3.40;;;17.60;99.90;;;;;;5106143;27;20199;-88
2022/05/13 07:09:46;;;;;;;3.35;3.05;;;17.50;99.90;;;;;;5102282;28;20201;-88
2022/05/13 07:12:16;;;;;;;4.22;3.90;;;17.60;99.90;;;;;;5094462;28;20216;-88
2022/05/13 07:14:44;;;;;;;3.47;3.17;;;17.60;99.90;;;;;;5113599;28;20235;-88
2022/05/13 07:17:12;;;;;;;7.30;3.40;;;17.50;99.90;;;;;;5111100;28;20271;-88
2022/05/13 07:19:41;;;;;;;3.97;3.65;;;17.50;99.90;;;;;;5094272;28;20258;-87
2022/05/13 07:22:09;;;;;;;3.45;3.25;;;17.40;99.90;;;;;;5112134;28;20282;-90
2022/05/13 07:24:39;;;;;;;3.42;3.13;;;17.40;99.90;;;;;;5105770;28;20196;-88
2022/05/13 07:27:08;;;;;;;4.45;3.83;;;17.40;99.90;;;;;;5100475;28;20199;-88
2022/05/13 07:29:37;;;;;;;4.28;3.90;;;17.30;99.90;;;;;;5114837;28;20200;-88
2022/05/13 07:32:06;;;;;;;3.38;3.17;;;17.30;99.90;;;;;;5112427;28;20279;-88
2022/05/13 07:34:35;;;;;;;4.25;3.78;;;17.30;99.90;;;;;;5103469;28;20218;-88
2022/05/13 07:37:04;;;;;;;3.70;3.13;;;17.20;99.90;;;;;;5099398;28;20228;-88
2022/05/13 07:42:20;;;;;;;4.35;3.95;;;17.20;99.90;;;;;;5111793;28;20284;-88
2022/05/13 07:44:49;;;;;;;4.05;3.75;;;17.10;99.90;;;;;;5113847;28;20286;-89
2022/05/13 07:47:20;;;;;;;4.88;4.47;;;17.10;99.90;;;;;;5103206;28;20223;-90
2022/05/13 07:49:52;;;;;;;4.40;4.03;;;16.90;99.90;;;;;;5098010;28;20208;-89
2022/05/13 07:52:20;;;;;;;5.43;4.90;;;16.90;99.90;;;;;;5093440;28;20258;-90
2022/05/13 07:54:49;;;;;;;4.13;3.72;;;16.80;99.90;;;;;;5098572;28;20220;-89
2022/05/13 07:57:19;;;;;;;4.97;4.57;;;16.80;99.90;;;;;;5093552;28;20205;-90
2022/05/13 08:02:33;;;;;;;4.38;4.07;;;16.70;99.90;;;;;;5098353;27;20215;-90
2022/05/13 08:05:04;;;;;;;5.93;4.75;;;16.70;99.90;;;;;;5113258;28;20196;-90
2022/05/13 08:07:33;;;;;;;10.80;4.53;;;16.80;99.90;;;;;;5114157;28;20196;-91
2022/05/13 08:10:07;;;;;;;4.57;4.18;;;16.80;99.90;;;;;;5114125;28;20252;-91
2022/05/13 08:12:38;;;;;;;5.45;4.95;;;16.80;99.90;;;;;;5109455;28;20203;-91
2022/05/13 08:15:08;;;;;;;4.53;4.13;;;16.90;99.90;;;;;;5097241;28;20204;-91
2022/05/13 08:17:37;;;;;;;4.55;4.20;;;16.80;99.90;;;;;;5113637;28;20196;-91
2022/05/13 08:20:12;;;;;;;4.28;3.88;;;16.80;99.90;;;;;;5102206;28;20204;-91
2022/05/13 08:22:41;;;;;;;7.38;4.53;;;16.90;99.90;;;;;;5093399;28;20216;-90
2022/05/13 08:25:10;;;;;;;4.90;4.40;;;16.90;99.90;;;;;;5093251;28;20209;-91
2022/05/13 08:28:05;;;;;;;8.90;3.80;;;16.90;99.90;;;;;;5094571;28;20292;-90
2022/05/13 08:30:39;;;;;;;4.35;3.78;;;16.90;99.90;;;;;;5108787;28;20287;-92
2022/05/13 08:33:09;;;;;;;4.10;3.80;;;17.00;99.90;;;;;;5107090;28;20252;-91
2022/05/13 08:35:38;;;;;;;3.33;3.13;;;17.00;99.90;;;;;;5093008;28;20247;-91
2022/05/13 08:38:07;;;;;;;3.72;3.42;;;17.00;99.90;;;;;;5106215;28;20192;-91
2022/05/13 08:40:54;;;;;;;3.83;3.53;;;17.10;99.90;;;;;;5112985;28;20245;-91
2022/05/13 08:43:27;;;;;;;3.58;3.28;;;17.20;99.90;;;;;;5112796;28;20211;-91
2022/05/13 08:45:57;;;;;;;3.42;3.13;;;17.20;99.90;;;;;;5113036;28;20202;-91
2022/05/13 08:48:33;;;;;;;5.20;3.35;;;17.40;99.90;;;;;;5106758;28;20204;-91
2022/05/13 08:51:14;;;;;;;3.30;3.03;;;17.50;99.90;;;;;;5102939;28;20188;-91
2022/05/13 08:53:53;;;;;;;3.40;3.10;;;17.60;99.90;;;;;;5109633;28;20224;-90
2022/05/13 08:56:31;;;;;;;3.80;3.35;;;17.80;99.90;;;;;;5116273;27;20217;-91
2022/05/13 08:59:14;;;;;;;2.65;2.45;;;18.20;99.90;;;;;;5110406;27;20195;-76
2022/05/13 09:01:47;;;;;;;6.10;2.58;;;18.60;99.90;;;;;;5135960;27;20211;-90
2022/05/13 09:04:32;;;;;;;2.60;2.40;;;18.80;99.90;;;;;;5114338;28;20215;-90
2022/05/13 09:07:03;;;;;;;2.95;2.47;;;19.00;99.90;;;;;;5114868;28;20200;-79
2022/05/13 09:09:32;;;;;;;2.97;2.67;;;19.30;99.90;;;;;;5117076;28;20226;-78
2022/05/13 09:12:09;;;;;;;2.25;2.08;;;19.40;99.90;;;;;;5096830;28;20200;-78
2022/05/13 09:14:46;;;;;;;2.70;2.50;;;19.50;99.90;;;;;;5096556;28;20227;-77
2022/05/13 09:17:33;;;;;;;1.98;1.88;;;19.60;99.90;;;;;;5096566;28;20208;-87
2022/05/13 09:20:07;;;;;;;2.75;2.55;;;19.60;99.90;;;;;;5115933;27;20298;-90
2022/05/13 09:22:40;;;;;;;2.53;2.33;;;19.50;99.90;;;;;;5127243;27;20261;-90
2022/05/13 09:25:17;;;;;;;5.43;2.67;;;19.50;99.90;;;;;;5109114;28;20251;-90
2022/05/13 09:27:49;;;;;;;2.38;2.20;;;19.70;99.90;;;;;;5109734;28;20200;-89
2022/05/13 09:30:34;;;;;;;2.90;2.13;;;19.90;99.90;;;;;;5094738;28;20196;-91
2022/05/13 09:33:21;;;;;;;2.25;2.15;;;20.10;99.90;;;;;;5095112;28;20247;-90
2022/05/13 09:35:52;;;;;;;3.88;2.90;;;20.40;99.90;;;;;;5095520;28;20212;-89
2022/05/13 09:38:23;;;;;;;2.58;2.38;;;20.60;99.90;;;;;;5095715;28;20257;-90
2022/05/13 09:41:02;;;;;;;2.70;2.45;;;20.50;99.90;;;;;;5095401;28;20200;-90
2022/05/13 09:43:40;;;;;;;4.00;2.40;;;20.70;99.90;;;;;;5095110;28;20240;-89
2022/05/13 09:46:12;;;;;;;3.33;2.40;;;20.90;99.90;;;;;;5095529;28;20220;-90
2022/05/13 09:48:54;;;;;;;3.42;2.13;;;20.90;99.90;;;;;;5094977;28;20231;-89
2022/05/13 09:51:30;;;;;;;3.10;2.35;;;20.80;99.90;;;;;;5095054;28;20209;-89
2022/05/13 09:54:12;;;;;;;3.13;2.70;;;20.70;99.90;;;;;;5095539;28;20220;-89
2022/05/13 09:56:44;;;;;;;3.25;3.05;;;20.60;99.90;;;;;;5095207;28;20234;-89
2022/05/13 09:59:19;;;;;;;3.58;3.03;;;20.70;99.90;;;;;;5094920;28;20300;-90
2022/05/13 10:01:50;;;;;;;5.50;2.95;;;20.70;99.90;;;;;;5094845;28;20294;-89
2022/05/13 10:04:22;;;;;;;2.72;2.53;;;20.70;99.90;;;;;;5094665;28;20236;-90
2022/05/13 10:07:04;;;;;;;2.30;2.13;;;20.70;99.90;;;;;;5094828;28;20207;-90
2022/05/13 10:15:25;;;;;;;3.53;2.70;;;20.80;99.90;;;;;;5094659;28;20211;-89
2022/05/13 10:18:01;;;;;;;2.40;2.22;;;20.90;99.90;;;;;;5094595;28;20244;-90
2022/05/13 10:20:34;;;;;;;3.40;3.13;;;21.00;99.90;;;;;;5095190;28;20211;-90
2022/05/13 10:23:14;;;;;;;3.88;3.38;;;21.10;99.90;;;;;;5094575;28;20281;-90
2022/05/13 10:25:53;;;;;;;5.50;3.13;;;21.10;99.90;;;;;;5094666;28;20231;-89
2022/05/13 10:28:26;;;;;;;3.47;3.17;;;21.10;99.90;;;;;;5094670;28;20204;-90
2022/05/13 10:30:59;;;;;;;12.60;3.35;;;21.20;99.90;;;;;;5094415;28;20210;-89
2022/05/13 10:33:34;;;;;;;3.03;2.80;;;21.20;99.90;;;;;;5095103;28;20220;-90
2022/05/13 10:36:08;;;;;;;2.78;2.58;;;21.30;99.90;;;;;;5094541;28;20210;-89
2022/05/13 10:38:43;;;;;;;3.85;3.55;;;21.40;99.90;;;;;;5094853;28;20264;-90
2022/05/13 10:41:23;;;;;;;3.40;3.13;;;21.60;99.90;;;;;;5094317;28;20207;-90
2022/05/13 10:43:58;;;;;;;3.17;2.97;;;21.90;99.90;;;;;;5094249;28;20235;-90
2022/05/13 10:46:33;;;;;;;3.75;3.15;;;22.20;99.90;;;;;;5094588;28;20280;-90
2022/05/13 10:49:27;;;;;;;3.28;3.00;;;22.70;99.90;;;;;;5094433;28;20239;-89
2022/05/13 10:52:05;;;;;;;3.22;3.03;;;23.00;99.90;;;;;;5094070;28;20211;-89
2022/05/13 10:54:43;;;;;;;3.53;3.20;;;23.10;99.90;;;;;;5094621;28;20266;-89
2022/05/13 10:57:35;;;;;;;3.72;3.38;;;23.20;99.90;;;;;;5094047;28;20209;-89
2022/05/13 11:00:12;;;;;;;3.35;3.13;;;23.40;99.90;;;;;;5094120;28;20216;-89
2022/05/13 11:03:14;;;;;;;3.45;3.15;;;23.90;99.90;;;;;;5093795;28;20224;-89
2022/05/13 11:05:56;;;;;;;2.95;2.75;;;24.20;99.90;;;;;;5093796;28;20214;-89
2022/05/13 11:08:33;;;;;;;2.90;2.70;;;24.20;99.90;;;;;;5093956;28;20268;-89
2022/05/13 11:11:12;;;;;;;3.30;2.70;;;24.10;99.90;;;;;;5093954;28;20260;-89
2022/05/13 11:13:52;;;;;;;2.78;2.58;;;24.30;99.90;;;;;;5093669;28;20311;-87
2022/05/13 11:16:37;;;;;;;3.70;3.40;;;24.90;99.90;;;;;;5111586;27;20264;-89
2022/05/13 11:19:18;;;;;;;3.03;2.83;;;25.10;99.90;;;;;;5102412;28;20219;-89
2022/05/13 11:21:54;;;;;;;8.43;2.70;;;25.10;99.90;;;;;;5112163;28;20202;-89
2022/05/13 11:27:39;;;;;;;3.20;2.60;;;25.90;99.90;;;;;;5093543;28;20228;-89
2022/05/13 11:30:18;;;;;;;4.70;2.80;;;26.20;99.90;;;;;;5123139;27;20195;-89
2022/05/13 11:32:54;;;;;;;2.75;2.55;;;26.50;99.90;;;;;;5116844;27;20250;-90
2022/05/13 11:35:39;;;;;;;7.05;3.40;;;26.70;99.90;;;;;;5123730;27;20194;-90
2022/05/13 11:38:17;;;;;;;4.22;3.20;;;27.00;99.90;;;;;;5119095;27;20267;-90
2022/05/13 11:40:53;;;;;;;4.68;3.47;;;27.20;99.90;;;;;;5119531;27;20209;-90
2022/05/13 11:43:51;;;;;;;3.50;3.20;;;27.40;99.90;;;;;;5125560;27;20290;-89
2022/05/13 11:46:34;;;;;;;3.38;3.08;;;27.40;99.90;;;;;;5132447;27;20207;-90
2022/05/13 11:49:10;;;;;;;3.10;2.80;;;27.00;99.90;;;;;;5104592;28;20200;-90
2022/05/13 11:51:39;;;;;;;2.80;2.60;;;26.60;99.90;;;;;;5096504;28;20226;-90
2022/05/13 11:54:19;;;;;;;2.10;2.00;;;26.80;99.90;;;;;;5112141;28;20285;-90
2022/05/13 11:56:49;;;;;;;2.53;2.33;;;26.40;99.90;;;;;;5115758;27;20223;-90
2022/05/13 11:59:45;;;;;;;3.10;2.65;;;26.30;99.90;;;;;;5134401;27;20286;-90
2022/05/13 12:02:29;;;;;;;7.15;3.22;;;26.20;99.90;;;;;;5118178;27;20227;-90
2022/05/13 12:05:32;;;;;;;25.08;7.20;;;26.00;99.90;;;;;;5116721;27;20305;-90
2022/05/13 12:18:44;;;;;;;8.02;2.80;;;26.70;99.90;;;;;;5038085;28;20201;-89
2022/05/13 12:21:53;;;;;;;2.47;2.28;;;26.90;99.90;;;;;;5045688;28;20288;-88
2022/05/13 12:49:54;;;;;;;2.40;2.20;;;26.20;99.90;;;;;;5008947;28;20210;-89
2022/05/13 12:53:08;;;;;;;2.40;2.20;;;25.80;99.90;;;;;;5011983;28;20262;-88
2022/05/13 12:56:32;;;;;;;2.40;2.22;;;26.00;99.90;;;;;;4996084;28;20295;-88
2022/05/13 13:03:09;;;;;;;2.67;2.33;;;25.90;99.90;;;;;;4904746;29;20263;-90
2022/05/13 13:10:31;;;;;;;2.88;2.55;;;26.10;99.90;;;;;;4880153;29;20223;-90
2022/05/13 13:14:12;;;;;;;2.40;2.20;;;26.00;99.90;;;;;;4798354;29;20230;-91
2022/05/13 13:31:25;;;;;;;2.20;2.10;;;25.90;99.90;;;;;;4736261;30;20209;-89
2022/05/13 13:48:09;;;;;;;2.70;2.50;;;25.20;99.90;;;;;;5357541;22;20230;-89
2022/05/13 13:51:03;;;;;;;2.35;2.22;;;25.10;99.90;;;;;;5035372;28;20209;-90
2022/05/13 13:53:42;;;;;;;1.95;1.85;;;25.10;99.90;;;;;;5035208;28;20225;-90
2022/05/13 13:56:55;;;;;;;2.40;2.20;;;25.00;99.90;;;;;;5035497;28;20202;-89
2022/05/13 13:59:45;;;;;;;2.15;2.05;;;24.80;99.90;;;;;;5033856;28;20199;-90
2022/05/13 14:08:54;;;;;;;3.00;2.10;;;24.90;99.90;;;;;;5035187;28;20202;-89
2022/05/13 14:11:25;;;;;;;2.60;2.42;;;24.80;99.90;;;;;;5034745;28;20293;-89
2022/05/13 15:30:40;;;;;;;3.45;3.15;;;23.70;99.90;;;;;;4902504;29;20250;-91
2022/05/13 15:44:35;;;;;;;6.70;2.80;;;22.90;99.90;;;;;;4876230;29;20229;-91
2022/05/13 15:47:09;;;;;;;3.40;2.63;;;22.90;99.90;;;;;;4915068;29;20210;-91
2022/05/13 16:20:55;;;;;;;1.85;1.75;;;22.40;99.90;;;;;;4888465;29;20206;-91
2022/05/13 16:46:37;;;;;;;1.42;1.33;;;21.50;99.90;;;;;;5030274;28;20237;-91
2022/05/13 17:21:48;;;;;;;1.83;1.73;;;20.70;99.90;;;;;;5015826;28;20215;-92
2022/05/13 17:24:29;;;;;;;1.60;1.50;;;20.60;99.90;;;;;;4995831;28;20310;-93
2022/05/13 17:27:29;;;;;;;1.88;1.70;;;20.50;99.90;;;;;;4996347;28;20208;-93
2022/05/13 19:00:50;;;;;;;2.00;1.90;;;19.20;99.90;;;;;;5031329;28;20206;-92
2022/05/13 19:52:51;;;;;;;3.38;2.28;;;19.00;99.90;;;;;;5899757;22;20238;-93
2022/05/13 19:55:35;;;;;;;2.10;1.98;;;19.00;99.90;;;;;;5013313;28;20203;-95
2022/05/13 19:58:36;;;;;;;2.58;2.35;;;19.00;99.90;;;;;;5013008;28;20202;-93
2022/05/13 20:41:16;;;;;;;2.67;2.47;;;18.80;99.90;;;;;;5030211;28;20206;-91
2022/05/13 20:43:47;;;;;;;2.55;2.35;;;18.70;99.90;;;;;;5032246;28;20222;-91
2022/05/13 20:46:24;;;;;;;3.08;2.53;;;18.70;99.90;;;;;;5032054;28;20258;-91
2022/05/13 20:48:53;;;;;;;3.40;3.10;;;18.80;99.90;;;;;;5032153;28;20202;-91
2022/05/13 20:51:23;;;;;;;3.05;2.80;;;18.70;99.90;;;;;;5033795;28;20210;-91
2022/05/13 20:53:51;;;;;;;2.65;2.45;;;18.70;99.90;;;;;;5036289;28;20276;-92
2022/05/13 20:56:22;;;;;;;2.60;2.40;;;18.70;99.90;;;;;;5036092;28;20217;-91
2022/05/13 20:58:52;;;;;;;2.55;2.35;;;18.70;99.90;;;;;;5036280;28;20202;-91
2022/05/13 21:01:21;;;;;;;3.00;2.80;;;18.60;99.90;;;;;;5036124;28;20210;-92
2022/05/13 21:03:53;;;;;;;3.22;2.92;;;18.70;99.90;;;;;;5035924;28;20230;-91
2022/05/13 21:06:22;;;;;;;3.28;2.95;;;18.60;99.90;;;;;;5035740;28;20227;-90
2022/05/13 21:08:52;;;;;;;3.10;2.80;;;18.60;99.90;;;;;;5036121;28;20222;-92
2022/05/13 21:11:22;;;;;;;3.47;2.55;;;18.60;99.90;;;;;;5035932;28;20230;-91
2022/05/13 21:13:51;;;;;;;2.80;2.60;;;18.60;99.90;;;;;;5035545;28;20250;-91
2022/05/13 21:16:19;;;;;;;3.70;3.03;;;18.60;99.90;;;;;;5035776;28;20202;-92
2022/05/13 21:18:48;;;;;;;2.50;2.30;;;18.50;99.90;;;;;;5035643;28;20260;-91